• Join FlightAware (Why Join?)
  • Login
  • US Flag 
11:24AM EDT


 

Airport Tracker/Info


-or-


 

Live Flight TrackerFlight Track Log ✈ SKW2696 ✈ 19-Apr-2013 ✈ KLAX - KRNO

Flight Track Log - Related Links

Times and Time Zones

All times are in EDT time to prevent confusion due to time zone crossing. See the SKW2696 flight status page for this flight to view local times or setup timezone preferences in your user account.

Time Position Orientation Groundspeed Altitude Reporting Facility
EDT Latitude Longitude Course Direction KTS MPH feet Rate Location/Type
06:22PM 33.9333 -118.4500 270° West 169 194 1,800  Level Southern California TRACON
06:23PM 33.9333 -118.5167 270° West 232 267 4,200 2,400 Climbing Southern California TRACON
06:23PM 33.9269 -118.5433 254° West 227 261 4,900 2,520 Climbing Los Angeles Center
06:24PM 33.9317 -118.6392 273° West 278 320 7,600 1,920 Climbing Los Angeles Center
06:25PM 33.9911 -118.6889 325° Northwest 259 298 9,000 660 Climbing Los Angeles Center
06:26PM 34.0594 -118.6961 355° North 276 318 9,000 240 Level Los Angeles Center
06:27PM 34.1269 -118.6494 30° Northeast 273 314 9,500 1,320 Climbing Los Angeles Center
06:28PM 34.2022 -118.6361 North 284 327 11,800 1,980 Climbing Los Angeles Center
06:29PM 34.2814 -118.6578 347° North 289 333 13,700 1,680 Climbing Los Angeles Center
06:30PM 34.3681 -118.6811 347° North 314 361 15,300 1,740 Climbing Los Angeles Center
06:31PM 34.4742 -118.7100 347° North 325 374 17,300 1,740 Climbing Los Angeles Center
06:32PM 34.5633 -118.7400 345° North 331 381 18,900 1,560 Climbing Los Angeles Center
06:33PM 34.6492 -118.7844 337° Northwest 334 384 20,600 1,320 Climbing Los Angeles Center
06:35PM 34.7356 -118.8278 338° Northwest 336 387 21,700 960 Climbing Los Angeles Center
06:36PM 34.8247 -118.8706 339° North 343 395 22,700 960 Climbing Los Angeles Center
06:37PM 34.9269 -118.9031 345° North 356 410 23,700 780 Climbing Los Angeles Center
06:38PM 35.0236 -118.9364 344° North 362 417 24,400 780 Climbing Los Angeles Center
06:39PM 35.1436 -118.9778 344° North 374 430 25,400 960 Climbing Los Angeles Center
06:40PM 35.2439 -119.0122 344° North 377 434 26,400 840 Climbing Los Angeles Center
06:41PM 35.3450 -119.0461 345° North 376 433 27,200 600 Climbing Los Angeles Center
06:42PM 35.4444 -119.0817 344° North 374 430 27,700 480 Climbing Los Angeles Center
06:43PM 35.5483 -119.1056 349° North 378 435 28,300 660 Climbing Los Angeles Center
06:44PM 35.6575 -119.1194 354° North 388 447 29,100 720 Climbing Los Angeles Center
06:45PM 35.7811 -119.1347 354° North 386 444 29,800 600 Climbing Oakland Center
06:46PM 35.8886 -119.1506 353° North 388 447 30,400 720 Climbing Oakland Center
06:47PM 35.9956 -119.1653 354° North 389 448 31,300 720 Climbing Oakland Center
06:48PM 36.1014 -119.1794 354° North 391 450 31,900 300 Climbing Oakland Center
06:49PM 36.2089 -119.1947 353° North 398 458 32,000  Climbing Oakland Center
06:50PM 36.3183 -119.2108 353° North 403 464 32,000  Level Oakland Center
06:51PM 36.4275 -119.2222 355° North 399 459 32,000  Level Oakland Center
06:52PM 36.5369 -119.2378 353° North 398 458 32,000  Level Oakland Center
06:53PM 36.6692 -119.2572 353° North 406 467 32,000  Level Oakland Center
06:54PM 36.7786 -119.2739 353° North 405 466 32,000  Level Oakland Center
06:55PM 36.8872 -119.2869 355° North 398 458 32,000  Level Oakland Center
06:56PM 36.9978 -119.3033 353° North 403 464 32,000  Level Oakland Center
06:57PM 37.1067 -119.3172 354° North 406 467 32,000  Level Oakland Center
06:58PM 37.2150 -119.3339 353° North 402 463 32,000  Level Oakland Center
06:59PM 37.3244 -119.3486 354° North 401 461 32,000 -300 Level Oakland Center
07:00PM 37.4319 -119.3725 350° North 403 464 31,400 -840 Descending Oakland Center
07:01PM 37.5383 -119.4008 348° North 396 456 30,400 -1,020 Descending Oakland Center
07:02PM 37.6481 -119.4283 349° North 379 436 29,400 -1,020 Descending Oakland Center
07:03PM 37.7539 -119.4583 347° North 386 444 28,400 -1,260 Descending Oakland Center
07:04PM 37.8794 -119.4939 347° North 385 443 26,900 -1,500 Descending Oakland Center
07:05PM 37.9861 -119.5247 347° North 389 448 25,400 -1,380 Descending Oakland Center
07:06PM 38.0947 -119.5564 347° North 398 458 24,100 -720 Descending Oakland Center
07:07PM 38.1981 -119.5856 347° North 388 447 24,000 -840 Descending Oakland Center
07:08PM 38.2978 -119.6156 347° North 375 432 22,500 -1,680 Descending Oakland Center
07:09PM 38.3939 -119.6431 347° North 361 415 20,600 -1,980 Descending Oakland Center
07:10PM 38.4964 -119.6736 347° North 346 398 18,500 -1,860 Descending Oakland Center
07:11PM 38.5889 -119.7017 347° North 342 394 16,800 -1,740 Descending Oakland Center
07:12PM 38.6828 -119.7303 347° North 344 396 15,000 -1,320 Descending Oakland Center
07:13PM 38.7736 -119.7581 347° North 340 391 14,100 -840 Descending Oakland Center
07:15PM 38.8614 -119.7700 354° North 321 369 13,300 -540 Descending Oakland Center
07:16PM 38.9533 -119.7697 360° North 324 373 13,000 -960 Descending Oakland Center
07:17PM 39.0364 -119.7700 360° North 314 361 11,400 -1,680 Descending Oakland Center
07:18PM 39.1147 -119.7697 360° North 300 345 9,600 -1,200 Descending Oakland Center
07:19PM 39.1903 -119.7689 360° North 288 331 9,000 -600 Descending Oakland Center
07:20PM 39.2658 -119.7667 North 277 319 8,500 -480 Descending Oakland Center
07:21PM 39.3436 -119.7681 359° North 273 314 8,100 -780 Descending Oakland Center
07:22PM 39.3833 -119.7667 North 165 190 7,000 -1,260 Descending Northern Cal TRACON
07:23PM 39.4333 -119.7667 360° North 152 175 5,700 -1,140 Descending Northern Cal TRACON
07:24PM 39.4667 -119.7667 360° North 156 180 4,800 -900 Descending Northern Cal TRACON
07:26PM 39.4833 -119.7667 North  Level FlightAware Approximate